sensor_id;sensor_type;location;lat;lon;timestamp;P1;durP1;ratioP1;P2;durP2;ratioP2
52894;SDS011;38759;53.396;6.722;2022-10-15T00:01:09;86.95;;;45.50;;
52894;SDS011;38759;53.396;6.722;2022-10-15T00:03:40;60.97;;;28.10;;
52894;SDS011;38759;53.396;6.722;2022-10-15T00:06:15;96.40;;;48.88;;
52894;SDS011;38759;53.396;6.722;2022-10-15T00:08:42;77.85;;;43.55;;
52894;SDS011;38759;53.396;6.722;2022-10-15T00:11:13;103.00;;;50.28;;
52894;SDS011;38759;53.396;6.722;2022-10-15T00:13:40;110.93;;;52.30;;
52894;SDS011;38759;53.396;6.722;2022-10-15T00:16:16;85.18;;;46.40;;
52894;SDS011;38759;53.396;6.722;2022-10-15T00:18:44;73.22;;;31.63;;
52894;SDS011;38759;53.396;6.722;2022-10-15T00:21:10;109.68;;;52.88;;
52894;SDS011;38759;53.396;6.722;2022-10-15T00:23:39;97.65;;;50.30;;
52894;SDS011;38759;53.396;6.722;2022-10-15T00:26:09;105.65;;;53.90;;
52894;SDS011;38759;53.396;6.722;2022-10-15T00:28:36;113.68;;;55.70;;
52894;SDS011;38759;53.396;6.722;2022-10-15T00:31:03;99.75;;;54.28;;
52894;SDS011;38759;53.396;6.722;2022-10-15T00:33:31;115.18;;;57.25;;
52894;SDS011;38759;53.396;6.722;2022-10-15T00:36:02;111.03;;;56.38;;
52894;SDS011;38759;53.396;6.722;2022-10-15T00:38:31;117.80;;;59.40;;
52894;SDS011;38759;53.396;6.722;2022-10-15T00:40:57;116.30;;;59.92;;
52894;SDS011;38759;53.396;6.722;2022-10-15T00:46:14;125.75;;;61.80;;
52894;SDS011;38759;53.396;6.722;2022-10-15T00:49:02;131.18;;;64.15;;
52894;SDS011;38759;53.396;6.722;2022-10-15T00:51:42;124.30;;;60.88;;
52894;SDS011;38759;53.396;6.722;2022-10-15T00:54:11;131.60;;;63.10;;
52894;SDS011;38759;53.396;6.722;2022-10-15T00:56:39;122.38;;;62.95;;
52894;SDS011;38759;53.396;6.722;2022-10-15T00:59:07;127.97;;;65.05;;
52894;SDS011;38759;53.396;6.722;2022-10-15T01:01:34;134.38;;;67.28;;
52894;SDS011;38759;53.396;6.722;2022-10-15T01:04:00;132.13;;;64.82;;
52894;SDS011;38759;53.396;6.722;2022-10-15T01:06:28;124.40;;;64.60;;
52894;SDS011;38759;53.396;6.722;2022-10-15T01:08:53;118.20;;;60.85;;
52894;SDS011;38759;53.396;6.722;2022-10-15T01:11:27;123.15;;;62.47;;
52894;SDS011;38759;53.396;6.722;2022-10-15T01:19:16;121.63;;;61.95;;
52894;SDS011;38759;53.396;6.722;2022-10-15T01:22:03;118.15;;;61.55;;
52894;SDS011;38759;53.396;6.722;2022-10-15T01:24:42;121.63;;;65.00;;
52894;SDS011;38759;53.396;6.722;2022-10-15T01:27:40;128.02;;;63.20;;
52894;SDS011;38759;53.396;6.722;2022-10-15T01:43:28;128.02;;;62.13;;
52894;SDS011;38759;53.396;6.722;2022-10-15T01:46:02;124.20;;;61.10;;
52894;SDS011;38759;53.396;6.722;2022-10-15T01:48:32;128.95;;;62.08;;
52894;SDS011;38759;53.396;6.722;2022-10-15T01:51:01;126.88;;;62.78;;
52894;SDS011;38759;53.396;6.722;2022-10-15T01:53:29;128.70;;;64.50;;
52894;SDS011;38759;53.396;6.722;2022-10-15T01:56:08;122.80;;;61.03;;
52894;SDS011;38759;53.396;6.722;2022-10-15T01:58:37;134.50;;;62.33;;
52894;SDS011;38759;53.396;6.722;2022-10-15T02:01:06;135.98;;;64.03;;
52894;SDS011;38759;53.396;6.722;2022-10-15T02:03:41;127.35;;;62.40;;
52894;SDS011;38759;53.396;6.722;2022-10-15T02:06:36;133.60;;;64.25;;
52894;SDS011;38759;53.396;6.722;2022-10-15T02:11:55;110.47;;;58.47;;
52894;SDS011;38759;53.396;6.722;2022-10-15T02:17:23;129.27;;;62.97;;
52894;SDS011;38759;53.396;6.722;2022-10-15T02:20:25;99.40;;;54.35;;
52894;SDS011;38759;53.396;6.722;2022-10-15T02:23:01;121.20;;;60.17;;
52894;SDS011;38759;53.396;6.722;2022-10-15T02:25:33;114.75;;;58.40;;
52894;SDS011;38759;53.396;6.722;2022-10-15T02:28:01;122.40;;;61.63;;
52894;SDS011;38759;53.396;6.722;2022-10-15T02:30:29;106.00;;;54.85;;
52894;SDS011;38759;53.396;6.722;2022-10-15T02:32:57;118.78;;;59.95;;
52894;SDS011;38759;53.396;6.722;2022-10-15T02:35:24;88.43;;;36.97;;
52894;SDS011;38759;53.396;6.722;2022-10-15T02:37:52;88.68;;;35.63;;
52894;SDS011;38759;53.396;6.722;2022-10-15T02:40:20;79.55;;;33.00;;
52894;SDS011;38759;53.396;6.722;2022-10-15T02:42:49;77.07;;;34.30;;
52894;SDS011;38759;53.396;6.722;2022-10-15T02:45:16;125.05;;;59.55;;
52894;SDS011;38759;53.396;6.722;2022-10-15T02:47:41;131.23;;;59.13;;
52894;SDS011;38759;53.396;6.722;2022-10-15T02:50:07;113.68;;;57.85;;
52894;SDS011;38759;53.396;6.722;2022-10-15T02:52:33;120.68;;;58.45;;
52894;SDS011;38759;53.396;6.722;2022-10-15T02:54:59;120.72;;;57.50;;
52894;SDS011;38759;53.396;6.722;2022-10-15T02:57:24;86.50;;;33.67;;
52894;SDS011;38759;53.396;6.722;2022-10-15T02:59:50;80.03;;;32.22;;
52894;SDS011;38759;53.396;6.722;2022-10-15T03:02:16;118.82;;;56.08;;
52894;SDS011;38759;53.396;6.722;2022-10-15T03:04:41;110.00;;;54.05;;
52894;SDS011;38759;53.396;6.722;2022-10-15T03:07:07;118.25;;;55.15;;
52894;SDS011;38759;53.396;6.722;2022-10-15T03:09:33;96.70;;;50.05;;
52894;SDS011;38759;53.396;6.722;2022-10-15T03:11:58;113.63;;;55.63;;
52894;SDS011;38759;53.396;6.722;2022-10-15T03:14:24;102.18;;;50.70;;
52894;SDS011;38759;53.396;6.722;2022-10-15T03:16:49;104.72;;;52.03;;
52894;SDS011;38759;53.396;6.722;2022-10-15T03:19:15;78.70;;;32.97;;
52894;SDS011;38759;53.396;6.722;2022-10-15T03:21:41;110.43;;;53.83;;
52894;SDS011;38759;53.396;6.722;2022-10-15T03:24:06;96.53;;;50.70;;
52894;SDS011;38759;53.396;6.722;2022-10-15T03:26:32;96.63;;;49.33;;
52894;SDS011;38759;53.396;6.722;2022-10-15T03:28:58;104.50;;;50.42;;
52894;SDS011;38759;53.396;6.722;2022-10-15T03:31:23;102.72;;;50.97;;
52894;SDS011;38759;53.396;6.722;2022-10-15T03:33:49;105.13;;;52.70;;
52894;SDS011;38759;53.396;6.722;2022-10-15T03:36:15;105.47;;;50.92;;
52894;SDS011;38759;53.396;6.722;2022-10-15T03:38:41;93.93;;;48.88;;
52894;SDS011;38759;53.396;6.722;2022-10-15T03:41:07;93.80;;;48.63;;
52894;SDS011;38759;53.396;6.722;2022-10-15T03:43:33;106.05;;;52.13;;
52894;SDS011;38759;53.396;6.722;2022-10-15T03:46:02;88.88;;;46.58;;
52894;SDS011;38759;53.396;6.722;2022-10-15T03:48:28;88.93;;;47.38;;
52894;SDS011;38759;53.396;6.722;2022-10-15T03:50:54;98.35;;;50.22;;
52894;SDS011;38759;53.396;6.722;2022-10-15T03:53:20;86.65;;;48.22;;
52894;SDS011;38759;53.396;6.722;2022-10-15T03:55:46;108.63;;;51.03;;
52894;SDS011;38759;53.396;6.722;2022-10-15T03:58:11;89.93;;;48.78;;
52894;SDS011;38759;53.396;6.722;2022-10-15T04:00:39;103.55;;;51.38;;
52894;SDS011;38759;53.396;6.722;2022-10-15T04:03:06;65.18;;;29.92;;
52894;SDS011;38759;53.396;6.722;2022-10-15T04:05:32;96.93;;;47.70;;
52894;SDS011;38759;53.396;6.722;2022-10-15T04:07:58;96.80;;;49.03;;
52894;SDS011;38759;53.396;6.722;2022-10-15T04:10:24;94.78;;;49.45;;
52894;SDS011;38759;53.396;6.722;2022-10-15T04:12:49;99.38;;;49.33;;
52894;SDS011;38759;53.396;6.722;2022-10-15T04:15:15;97.40;;;49.47;;
52894;SDS011;38759;53.396;6.722;2022-10-15T04:17:41;92.80;;;47.88;;
52894;SDS011;38759;53.396;6.722;2022-10-15T04:20:07;97.00;;;50.03;;
52894;SDS011;38759;53.396;6.722;2022-10-15T04:22:33;96.85;;;49.65;;
52894;SDS011;38759;53.396;6.722;2022-10-15T04:24:59;82.07;;;45.70;;
52894;SDS011;38759;53.396;6.722;2022-10-15T04:27:24;90.32;;;48.47;;
52894;SDS011;38759;53.396;6.722;2022-10-15T04:29:50;106.32;;;51.08;;
52894;SDS011;38759;53.396;6.722;2022-10-15T04:32:16;101.75;;;50.28;;
52894;SDS011;38759;53.396;6.722;2022-10-15T04:34:41;99.60;;;49.97;;
52894;SDS011;38759;53.396;6.722;2022-10-15T04:37:07;94.72;;;50.42;;
52894;SDS011;38759;53.396;6.722;2022-10-15T04:39:33;71.82;;;32.78;;
52894;SDS011;38759;53.396;6.722;2022-10-15T04:41:59;100.28;;;51.05;;
52894;SDS011;38759;53.396;6.722;2022-10-15T04:44:24;92.68;;;48.75;;
52894;SDS011;38759;53.396;6.722;2022-10-15T04:46:50;95.00;;;51.97;;
52894;SDS011;38759;53.396;6.722;2022-10-15T04:49:15;84.65;;;46.70;;
52894;SDS011;38759;53.396;6.722;2022-10-15T04:51:41;102.18;;;52.80;;
52894;SDS011;38759;53.396;6.722;2022-10-15T04:54:07;108.43;;;52.30;;
52894;SDS011;38759;53.396;6.722;2022-10-15T04:56:32;91.72;;;48.72;;
52894;SDS011;38759;53.396;6.722;2022-10-15T04:58:58;95.72;;;51.35;;
52894;SDS011;38759;53.396;6.722;2022-10-15T05:01:23;106.15;;;52.40;;
52894;SDS011;38759;53.396;6.722;2022-10-15T05:03:49;90.90;;;49.03;;
52894;SDS011;38759;53.396;6.722;2022-10-15T05:06:16;101.45;;;51.95;;
52894;SDS011;38759;53.396;6.722;2022-10-15T05:08:43;106.80;;;53.28;;
52894;SDS011;38759;53.396;6.722;2022-10-15T05:11:10;102.90;;;52.47;;
52894;SDS011;38759;53.396;6.722;2022-10-15T05:13:38;93.97;;;49.53;;
52894;SDS011;38759;53.396;6.722;2022-10-15T05:16:07;101.20;;;50.60;;
52894;SDS011;38759;53.396;6.722;2022-10-15T05:18:36;77.47;;;33.03;;
52894;SDS011;38759;53.396;6.722;2022-10-15T05:21:03;109.90;;;52.25;;
52894;SDS011;38759;53.396;6.722;2022-10-15T05:23:29;102.82;;;50.75;;
52894;SDS011;38759;53.396;6.722;2022-10-15T05:25:57;112.65;;;53.30;;
52894;SDS011;38759;53.396;6.722;2022-10-15T05:28:27;101.80;;;49.75;;
52894;SDS011;38759;53.396;6.722;2022-10-15T05:30:53;121.85;;;55.72;;
52894;SDS011;38759;53.396;6.722;2022-10-15T05:33:19;133.70;;;58.17;;
52894;SDS011;38759;53.396;6.722;2022-10-15T05:35:45;124.38;;;57.13;;
52894;SDS011;38759;53.396;6.722;2022-10-15T05:38:10;126.00;;;56.03;;
52894;SDS011;38759;53.396;6.722;2022-10-15T05:40:36;144.88;;;60.45;;
52894;SDS011;38759;53.396;6.722;2022-10-15T05:43:02;123.85;;;56.92;;
52894;SDS011;38759;53.396;6.722;2022-10-15T05:45:27;82.13;;;33.75;;
52894;SDS011;38759;53.396;6.722;2022-10-15T05:47:53;83.85;;;33.38;;
52894;SDS011;38759;53.396;6.722;2022-10-15T05:50:20;132.50;;;58.05;;
52894;SDS011;38759;53.396;6.722;2022-10-15T05:52:46;132.68;;;60.40;;
52894;SDS011;38759;53.396;6.722;2022-10-15T05:55:12;121.70;;;58.28;;
52894;SDS011;38759;53.396;6.722;2022-10-15T05:57:38;105.05;;;52.00;;
52894;SDS011;38759;53.396;6.722;2022-10-15T06:00:04;85.55;;;34.63;;
52894;SDS011;38759;53.396;6.722;2022-10-15T06:02:32;74.72;;;31.15;;
52894;SDS011;38759;53.396;6.722;2022-10-15T06:04:57;80.97;;;32.00;;
52894;SDS011;38759;53.396;6.722;2022-10-15T06:07:23;123.20;;;55.60;;
52894;SDS011;38759;53.396;6.722;2022-10-15T06:09:49;115.07;;;56.40;;
52894;SDS011;38759;53.396;6.722;2022-10-15T06:12:14;107.80;;;53.58;;
52894;SDS011;38759;53.396;6.722;2022-10-15T06:14:40;123.00;;;57.05;;
52894;SDS011;38759;53.396;6.722;2022-10-15T06:17:06;114.75;;;56.75;;
52894;SDS011;38759;53.396;6.722;2022-10-15T06:19:31;99.28;;;52.38;;
52894;SDS011;38759;53.396;6.722;2022-10-15T06:21:57;80.68;;;35.17;;
52894;SDS011;38759;53.396;6.722;2022-10-15T06:24:22;106.57;;;54.40;;
52894;SDS011;38759;53.396;6.722;2022-10-15T06:26:48;108.15;;;52.42;;
52894;SDS011;38759;53.396;6.722;2022-10-15T06:29:14;117.72;;;56.88;;
52894;SDS011;38759;53.396;6.722;2022-10-15T06:31:39;106.90;;;54.55;;
52894;SDS011;38759;53.396;6.722;2022-10-15T06:34:05;88.75;;;34.50;;
52894;SDS011;38759;53.396;6.722;2022-10-15T06:36:31;78.65;;;32.95;;
52894;SDS011;38759;53.396;6.722;2022-10-15T06:38:57;128.48;;;59.60;;
52894;SDS011;38759;53.396;6.722;2022-10-15T06:41:22;85.63;;;35.13;;
52894;SDS011;38759;53.396;6.722;2022-10-15T06:43:48;83.38;;;34.10;;
52894;SDS011;38759;53.396;6.722;2022-10-15T06:46:14;88.32;;;34.35;;
52894;SDS011;38759;53.396;6.722;2022-10-15T06:48:40;83.72;;;34.95;;
52894;SDS011;38759;53.396;6.722;2022-10-15T06:51:05;116.43;;;56.55;;
52894;SDS011;38759;53.396;6.722;2022-10-15T06:53:31;119.35;;;58.05;;
52894;SDS011;38759;53.396;6.722;2022-10-15T06:56:01;120.88;;;59.05;;
52894;SDS011;38759;53.396;6.722;2022-10-15T06:58:27;92.43;;;36.15;;
52894;SDS011;38759;53.396;6.722;2022-10-15T07:00:58;129.45;;;61.50;;
52894;SDS011;38759;53.396;6.722;2022-10-15T07:03:28;95.45;;;35.53;;
52894;SDS011;38759;53.396;6.722;2022-10-15T07:05:54;93.82;;;36.20;;
52894;SDS011;38759;53.396;6.722;2022-10-15T07:08:20;138.02;;;61.58;;
52894;SDS011;38759;53.396;6.722;2022-10-15T07:10:46;124.10;;;60.17;;
52894;SDS011;38759;53.396;6.722;2022-10-15T07:13:11;139.48;;;64.05;;
52894;SDS011;38759;53.396;6.722;2022-10-15T07:15:38;91.25;;;36.10;;
52894;SDS011;38759;53.396;6.722;2022-10-15T07:18:03;96.55;;;36.47;;
52894;SDS011;38759;53.396;6.722;2022-10-15T07:20:29;91.95;;;35.63;;
52894;SDS011;38759;53.396;6.722;2022-10-15T07:22:59;96.43;;;38.10;;
52894;SDS011;38759;53.396;6.722;2022-10-15T07:25:26;91.38;;;38.30;;
52894;SDS011;38759;53.396;6.722;2022-10-15T07:27:52;145.43;;;65.57;;
52894;SDS011;38759;53.396;6.722;2022-10-15T07:30:19;125.63;;;60.53;;
52894;SDS011;38759;53.396;6.722;2022-10-15T07:32:46;131.32;;;61.30;;
52894;SDS011;38759;53.396;6.722;2022-10-15T07:35:12;135.20;;;64.78;;
52894;SDS011;38759;53.396;6.722;2022-10-15T07:37:38;136.10;;;64.30;;
52894;SDS011;38759;53.396;6.722;2022-10-15T07:40:04;134.68;;;61.58;;
52894;SDS011;38759;53.396;6.722;2022-10-15T07:42:31;110.65;;;38.95;;
52894;SDS011;38759;53.396;6.722;2022-10-15T07:44:56;106.03;;;37.38;;
52894;SDS011;38759;53.396;6.722;2022-10-15T07:47:23;143.82;;;64.90;;
52894;SDS011;38759;53.396;6.722;2022-10-15T07:49:48;132.30;;;63.70;;
52894;SDS011;38759;53.396;6.722;2022-10-15T07:52:16;142.70;;;65.05;;
52894;SDS011;38759;53.396;6.722;2022-10-15T07:55:58;135.73;;;65.20;;
52894;SDS011;38759;53.396;6.722;2022-10-15T07:58:25;113.88;;;39.58;;
52894;SDS011;38759;53.396;6.722;2022-10-15T08:00:52;128.90;;;62.28;;
52894;SDS011;38759;53.396;6.722;2022-10-15T08:03:18;131.90;;;62.63;;
52894;SDS011;38759;53.396;6.722;2022-10-15T08:05:44;129.15;;;61.60;;
52894;SDS011;38759;53.396;6.722;2022-10-15T08:08:09;143.05;;;66.00;;
52894;SDS011;38759;53.396;6.722;2022-10-15T08:10:35;132.20;;;63.80;;
52894;SDS011;38759;53.396;6.722;2022-10-15T08:13:01;140.18;;;64.35;;
52894;SDS011;38759;53.396;6.722;2022-10-15T08:15:27;132.77;;;63.97;;
52894;SDS011;38759;53.396;6.722;2022-10-15T08:17:53;127.53;;;63.67;;
52894;SDS011;38759;53.396;6.722;2022-10-15T08:20:18;122.35;;;60.75;;
52894;SDS011;38759;53.396;6.722;2022-10-15T08:22:44;125.97;;;62.03;;
52894;SDS011;38759;53.396;6.722;2022-10-15T08:25:10;142.40;;;66.47;;
52894;SDS011;38759;53.396;6.722;2022-10-15T08:27:35;151.63;;;67.80;;
52894;SDS011;38759;53.396;6.722;2022-10-15T08:30:02;153.48;;;71.55;;
52894;SDS011;38759;53.396;6.722;2022-10-15T08:32:28;155.68;;;71.03;;
52894;SDS011;38759;53.396;6.722;2022-10-15T08:34:54;139.10;;;67.10;;
52894;SDS011;38759;53.396;6.722;2022-10-15T08:37:19;128.98;;;64.20;;
52894;SDS011;38759;53.396;6.722;2022-10-15T08:39:45;121.35;;;59.42;;
52894;SDS011;38759;53.396;6.722;2022-10-15T08:42:21;125.70;;;61.92;;
52894;SDS011;38759;53.396;6.722;2022-10-15T08:44:58;115.85;;;60.05;;
52894;SDS011;38759;53.396;6.722;2022-10-15T08:48:30;118.35;;;60.35;;
52894;SDS011;38759;53.396;6.722;2022-10-15T08:50:41;105.63;;;55.85;;
52894;SDS011;38759;53.396;6.722;2022-10-15T08:53:28;103.63;;;56.15;;
52894;SDS011;38759;53.396;6.722;2022-10-15T08:55:58;111.47;;;58.67;;
52894;SDS011;38759;53.396;6.722;2022-10-15T08:58:35;99.38;;;54.85;;
52894;SDS011;38759;53.396;6.722;2022-10-15T09:01:27;101.80;;;56.03;;
52894;SDS011;38759;53.396;6.722;2022-10-15T09:07:24;91.03;;;38.50;;
52894;SDS011;38759;53.396;6.722;2022-10-15T09:13:24;106.75;;;57.47;;
52894;SDS011;38759;53.396;6.722;2022-10-15T09:15:50;103.75;;;57.55;;
52894;SDS011;38759;53.396;6.722;2022-10-15T09:18:26;87.38;;;50.55;;
52894;SDS011;38759;53.396;6.722;2022-10-15T09:20:56;78.00;;;48.22;;
52894;SDS011;38759;53.396;6.722;2022-10-15T09:23:25;84.75;;;50.22;;
52894;SDS011;38759;53.396;6.722;2022-10-15T09:28:36;83.57;;;49.92;;
52894;SDS011;38759;53.396;6.722;2022-10-15T09:31:07;74.68;;;47.35;;
52894;SDS011;38759;53.396;6.722;2022-10-15T09:33:51;73.57;;;45.95;;
52894;SDS011;38759;53.396;6.722;2022-10-15T09:42:00;74.60;;;45.13;;
52894;SDS011;38759;53.396;6.722;2022-10-15T09:44:32;72.93;;;46.75;;
52894;SDS011;38759;53.396;6.722;2022-10-15T09:47:13;69.55;;;46.08;;
52894;SDS011;38759;53.396;6.722;2022-10-15T09:49:42;63.47;;;44.47;;
52894;SDS011;38759;53.396;6.722;2022-10-15T09:57:35;64.90;;;43.83;;
52894;SDS011;38759;53.396;6.722;2022-10-15T10:00:08;62.88;;;43.60;;
52894;SDS011;38759;53.396;6.722;2022-10-15T10:02:35;55.38;;;38.85;;
52894;SDS011;38759;53.396;6.722;2022-10-15T10:08:06;48.42;;;33.30;;
52894;SDS011;38759;53.396;6.722;2022-10-15T10:10:44;42.85;;;30.30;;
52894;SDS011;38759;53.396;6.722;2022-10-15T10:13:22;43.38;;;30.40;;
52894;SDS011;38759;53.396;6.722;2022-10-15T10:15:54;43.78;;;30.25;;
52894;SDS011;38759;53.396;6.722;2022-10-15T10:18:26;43.08;;;29.77;;
52894;SDS011;38759;53.396;6.722;2022-10-15T10:23:22;43.10;;;30.27;;
52894;SDS011;38759;53.396;6.722;2022-10-15T10:25:49;45.83;;;30.05;;
52894;SDS011;38759;53.396;6.722;2022-10-15T10:28:17;44.90;;;30.70;;
52894;SDS011;38759;53.396;6.722;2022-10-15T10:33:23;52.78;;;33.33;;
52894;SDS011;38759;53.396;6.722;2022-10-15T10:36:01;51.42;;;33.83;;
52894;SDS011;38759;53.396;6.722;2022-10-15T10:41:07;51.35;;;33.22;;
52894;SDS011;38759;53.396;6.722;2022-10-15T10:43:39;51.50;;;33.47;;
52894;SDS011;38759;53.396;6.722;2022-10-15T10:46:15;51.83;;;33.95;;
52894;SDS011;38759;53.396;6.722;2022-10-15T10:48:43;58.65;;;35.63;;
52894;SDS011;38759;53.396;6.722;2022-10-15T10:51:15;60.50;;;36.72;;
52894;SDS011;38759;53.396;6.722;2022-10-15T10:56:16;53.58;;;33.33;;
52894;SDS011;38759;53.396;6.722;2022-10-15T10:58:47;53.22;;;33.67;;
52894;SDS011;38759;53.396;6.722;2022-10-15T11:01:16;53.78;;;33.05;;
52894;SDS011;38759;53.396;6.722;2022-10-15T11:03:43;47.05;;;29.67;;
52894;SDS011;38759;53.396;6.722;2022-10-15T11:06:31;44.53;;;26.90;;
52894;SDS011;38759;53.396;6.722;2022-10-15T11:23:28;43.35;;;27.00;;
52894;SDS011;38759;53.396;6.722;2022-10-15T11:26:21;35.58;;;24.60;;
52894;SDS011;38759;53.396;6.722;2022-10-15T11:32:20;31.35;;;21.55;;
52894;SDS011;38759;53.396;6.722;2022-10-15T11:46:29;29.67;;;21.17;;
52894;SDS011;38759;53.396;6.722;2022-10-15T11:54:41;33.42;;;21.85;;
52894;SDS011;38759;53.396;6.722;2022-10-15T11:57:13;31.23;;;22.30;;
52894;SDS011;38759;53.396;6.722;2022-10-15T11:59:48;32.25;;;21.13;;
52894;SDS011;38759;53.396;6.722;2022-10-15T12:02:27;32.10;;;21.25;;
52894;SDS011;38759;53.396;6.722;2022-10-15T12:04:58;30.05;;;20.98;;
52894;SDS011;38759;53.396;6.722;2022-10-15T12:07:33;31.13;;;21.15;;
52894;SDS011;38759;53.396;6.722;2022-10-15T12:17:58;29.55;;;21.88;;
52894;SDS011;38759;53.396;6.722;2022-10-15T12:20:33;31.88;;;22.70;;
52894;SDS011;38759;53.396;6.722;2022-10-15T12:23:00;31.17;;;22.48;;
52894;SDS011;38759;53.396;6.722;2022-10-15T12:28:20;30.80;;;22.27;;
52894;SDS011;38759;53.396;6.722;2022-10-15T12:30:57;34.80;;;21.98;;
52894;SDS011;38759;53.396;6.722;2022-10-15T12:36:38;28.08;;;20.48;;
52894;SDS011;38759;53.396;6.722;2022-10-15T12:38:56;27.58;;;19.08;;
52894;SDS011;38759;53.396;6.722;2022-10-15T12:44:31;24.95;;;18.48;;
52894;SDS011;38759;53.396;6.722;2022-10-15T12:46:59;22.25;;;17.67;;
52894;SDS011;38759;53.396;6.722;2022-10-15T12:51:51;22.08;;;17.58;;
52894;SDS011;38759;53.396;6.722;2022-10-15T12:54:37;22.52;;;17.60;;
